createdAt,value
2019-05-20T00:01:38.127Z,49.40
2019-05-20T00:04:04.680Z,49.87
2019-05-20T00:06:31.507Z,53.20
2019-05-20T00:08:57.855Z,57.00
2019-05-20T00:11:24.584Z,49.33
2019-05-20T00:13:51.433Z,44.57
2019-05-20T00:16:17.903Z,49.30
2019-05-20T00:18:44.353Z,43.80
2019-05-20T00:21:11.140Z,49.70
2019-05-20T00:23:37.974Z,51.70
2019-05-20T00:26:04.421Z,58.03
2019-05-20T00:28:31.007Z,58.73
2019-05-20T00:30:57.795Z,53.40
2019-05-20T00:33:24.268Z,56.00
2019-05-20T00:35:50.924Z,62.33
2019-05-20T00:38:17.408Z,63.07
2019-05-20T00:40:44.444Z,67.70
2019-05-20T00:43:11.393Z,74.10
2019-05-20T00:45:37.965Z,71.12
2019-05-20T00:48:24.379Z,56.13
2019-05-20T00:50:51.171Z,62.97
2019-05-20T00:53:18.121Z,67.97
2019-05-20T00:55:44.855Z,65.23
2019-05-20T00:58:11.799Z,67.30
2019-05-20T01:00:38.830Z,63.83
2019-05-20T01:03:05.569Z,71.50
2019-05-20T01:05:32.430Z,69.57
2019-05-20T01:07:59.014Z,66.53
2019-05-20T01:10:25.583Z,74.03
2019-05-20T01:12:52.494Z,66.93
2019-05-20T01:15:19.394Z,80.33
2019-05-20T01:17:45.868Z,73.53
2019-05-20T01:20:12.512Z,74.93
2019-05-20T01:22:38.883Z,67.93
2019-05-20T01:25:05.752Z,70.07
2019-05-20T01:27:32.313Z,72.90
2019-05-20T01:29:58.772Z,73.77
2019-05-20T01:32:25.270Z,71.50
2019-05-20T01:34:51.714Z,71.70
2019-05-20T01:37:18.184Z,77.73
2019-05-20T01:39:44.963Z,72.70
2019-05-20T01:42:11.538Z,74.57
2019-05-20T01:44:38.445Z,74.73
2019-05-20T01:47:04.996Z,75.60
2019-05-20T01:49:31.372Z,72.97
2019-05-20T01:51:57.884Z,77.97
2019-05-20T01:54:24.351Z,80.40
2019-05-20T01:56:50.718Z,88.23
2019-05-20T01:59:18.273Z,79.13
2019-05-20T02:01:45.013Z,82.77
2019-05-20T02:04:11.855Z,80.87
2019-05-20T02:06:38.707Z,72.37
2019-05-20T02:09:07.588Z,83.97
2019-05-20T02:11:34.067Z,81.13
2019-05-20T02:14:02.543Z,72.50
2019-05-20T02:16:30.356Z,67.23
2019-05-20T02:18:56.924Z,78.20
2019-05-20T02:21:23.594Z,69.20
2019-05-20T02:23:50.274Z,79.60
2019-05-20T02:26:16.924Z,73.00
2019-05-20T02:28:43.425Z,68.87
2019-05-20T02:31:09.978Z,73.00
2019-05-20T02:33:50.749Z,76.70
2019-05-20T02:36:04.828Z,67.70
2019-05-20T02:38:31.754Z,70.13
2019-05-20T02:40:58.538Z,66.53
2019-05-20T02:43:25.088Z,72.83
2019-05-20T02:45:51.483Z,68.93
2019-05-20T02:48:18.029Z,56.03
2019-05-20T02:50:44.617Z,66.73
2019-05-20T02:53:11.365Z,69.53
2019-05-20T02:55:37.849Z,74.00
2019-05-20T02:58:04.290Z,63.10
2019-05-20T03:00:30.757Z,64.30
2019-05-20T03:02:57.309Z,62.30
2019-05-20T03:05:43.737Z,56.53
2019-05-20T03:08:10.306Z,69.90
2019-05-20T03:10:36.780Z,56.47
2019-05-20T03:13:03.352Z,57.93
2019-05-20T03:15:30.006Z,54.07
2019-05-20T03:17:57.061Z,57.00
2019-05-20T03:20:23.531Z,55.97
2019-05-20T03:22:49.890Z,55.33
2019-05-20T03:25:16.749Z,49.33
2019-05-20T03:27:43.220Z,50.80
2019-05-20T03:30:10.397Z,50.23
2019-05-20T03:32:36.970Z,54.00
2019-05-20T03:35:08.055Z,52.33
2019-05-20T03:37:34.721Z,58.73
2019-05-20T03:40:01.684Z,63.90
2019-05-20T03:42:28.243Z,70.10
2019-05-20T03:44:54.800Z,57.30
2019-05-20T03:47:21.290Z,57.37
2019-05-20T03:49:47.736Z,61.97
2019-05-20T03:52:14.207Z,57.27
2019-05-20T03:54:40.561Z,56.70
2019-05-20T03:57:07.145Z,56.37
2019-05-20T03:59:33.810Z,54.00
2019-05-20T04:02:00.273Z,56.20
2019-05-20T04:04:26.720Z,53.73
2019-05-20T04:06:53.406Z,58.13
2019-05-20T04:09:19.949Z,46.77
2019-05-20T04:11:46.536Z,56.43
2019-05-20T04:14:13.114Z,56.20
2019-05-20T04:16:39.921Z,52.47
2019-05-20T04:19:06.495Z,52.60
2019-05-20T04:21:33.164Z,49.10
2019-05-20T04:24:01.395Z,52.13
2019-05-20T04:26:28.087Z,54.67
2019-05-20T04:28:54.569Z,55.33
2019-05-20T04:31:21.023Z,49.83
2019-05-20T04:33:47.514Z,54.63
2019-05-20T04:36:14.169Z,52.57
2019-05-20T04:38:40.851Z,44.53
2019-05-20T04:41:07.635Z,51.03
2019-05-20T04:43:34.079Z,54.83
2019-05-20T04:46:00.669Z,49.50
2019-05-20T04:48:27.224Z,44.83
2019-05-20T04:50:53.716Z,52.53
2019-05-20T04:53:20.257Z,49.93
2019-05-20T04:55:46.843Z,52.40
2019-05-20T04:58:13.284Z,42.50
2019-05-20T05:00:48.923Z,49.10
2019-05-20T05:03:15.375Z,48.00
2019-05-20T05:05:42.081Z,48.87
2019-05-20T05:08:08.520Z,44.00
2019-05-20T05:10:34.983Z,46.77
2019-05-20T05:13:01.556Z,49.57
2019-05-20T05:15:28.221Z,56.20
2019-05-20T05:17:54.787Z,42.20
2019-05-20T05:20:21.462Z,43.07
2019-05-20T05:22:48.023Z,43.93
2019-05-20T05:25:15.008Z,47.67
2019-05-20T05:27:41.953Z,43.37
2019-05-20T05:30:08.908Z,39.57
2019-05-20T05:32:44.287Z,49.60
2019-05-20T05:35:15.763Z,41.40
2019-05-20T05:37:42.669Z,46.33
2019-05-20T05:40:10.716Z,41.13
2019-05-20T05:42:37.189Z,37.33
2019-05-20T05:45:05.242Z,37.53
2019-05-20T05:47:31.845Z,39.43
2019-05-20T05:49:58.698Z,39.60
2019-05-20T05:52:25.178Z,40.17
2019-05-20T05:54:51.732Z,36.00
2019-05-20T05:57:18.222Z,37.00
2019-05-20T05:59:44.764Z,32.07
2019-05-20T06:02:11.225Z,36.53
2019-05-20T06:04:37.813Z,39.87
2019-05-20T06:07:04.260Z,36.83
2019-05-20T06:09:30.737Z,37.57
2019-05-20T06:11:57.197Z,38.07
2019-05-20T06:14:23.678Z,35.40
2019-05-20T06:16:50.130Z,36.83
2019-05-20T06:19:16.678Z,36.43
2019-05-20T06:21:43.101Z,38.63
2019-05-20T06:24:09.683Z,36.50
2019-05-20T06:26:36.258Z,42.37
2019-05-20T06:29:03.161Z,36.70
2019-05-20T06:31:29.886Z,40.23
2019-05-20T06:33:56.601Z,36.43
2019-05-20T06:36:26.944Z,37.90
2019-05-20T06:38:53.795Z,36.40
2019-05-20T06:41:20.666Z,33.27
2019-05-20T06:43:47.237Z,37.83
2019-05-20T06:46:13.834Z,36.00
2019-05-20T06:48:40.283Z,37.00
2019-05-20T06:51:07.058Z,33.83
2019-05-20T06:53:33.545Z,34.30
2019-05-20T06:56:00.023Z,34.77
2019-05-20T06:58:26.475Z,37.33
2019-05-20T07:00:53.016Z,42.90
2019-05-20T07:03:19.404Z,37.93
2019-05-20T07:05:45.952Z,34.73
2019-05-20T07:08:12.433Z,33.20
2019-05-20T07:10:39.391Z,34.57
2019-05-20T07:13:06.249Z,36.50
2019-05-20T07:15:32.988Z,35.60
2019-05-20T07:17:59.666Z,37.70
2019-05-20T07:20:26.206Z,34.70
2019-05-20T07:22:56.208Z,33.30
2019-05-20T07:25:21.418Z,29.33
2019-05-20T07:27:48.095Z,38.20
2019-05-20T07:30:15.743Z,35.40
2019-05-20T07:32:42.514Z,32.63
2019-05-20T07:35:09.402Z,35.67
2019-05-20T07:37:36.239Z,30.73
2019-05-20T07:40:04.483Z,31.83
2019-05-20T07:42:30.939Z,30.53
2019-05-20T07:44:57.328Z,30.03
2019-05-20T07:47:24.296Z,30.53
2019-05-20T07:49:51.863Z,31.97
2019-05-20T07:52:19.016Z,29.60
2019-05-20T07:54:46.700Z,31.43
2019-05-20T07:57:16.261Z,34.53
2019-05-20T07:59:44.251Z,33.20
2019-05-20T08:02:11.320Z,29.97
2019-05-20T08:04:38.006Z,27.27
2019-05-20T08:07:26.238Z,28.70
2019-05-20T08:09:33.668Z,30.37
2019-05-20T08:12:00.170Z,29.10
2019-05-20T08:14:26.621Z,28.73
2019-05-20T08:16:53.107Z,27.43
2019-05-20T08:19:20.024Z,30.40
2019-05-20T08:21:46.602Z,32.90
2019-05-20T08:24:13.360Z,28.03
2019-05-20T08:26:40.069Z,31.10
2019-05-20T08:29:06.612Z,27.43
2019-05-20T08:31:33.114Z,30.90
2019-05-20T08:33:59.558Z,27.63
2019-05-20T08:36:26.019Z,31.17
2019-05-20T08:38:52.525Z,27.93
2019-05-20T08:41:19.086Z,30.33
2019-05-20T08:43:45.568Z,33.10
2019-05-20T08:46:12.132Z,31.00
2019-05-20T08:48:38.597Z,30.37
2019-05-20T08:51:05.165Z,34.90
2019-05-20T08:53:31.749Z,37.87
2019-05-20T08:55:58.207Z,38.90
2019-05-20T08:58:24.794Z,36.00
2019-05-20T09:00:51.340Z,37.40
2019-05-20T09:03:17.797Z,42.87
2019-05-20T09:05:44.376Z,34.70
2019-05-20T09:08:11.046Z,34.63
2019-05-20T09:10:39.666Z,35.90
2019-05-20T09:13:05.896Z,37.53
2019-05-20T09:15:32.720Z,35.37
2019-05-20T09:17:59.384Z,31.27
2019-05-20T09:20:26.494Z,33.10
2019-05-20T09:22:53.217Z,34.37
2019-05-20T09:25:23.767Z,32.30
2019-05-20T09:27:50.747Z,27.10
2019-05-20T09:30:17.796Z,32.40
2019-05-20T09:32:45.254Z,28.40
2019-05-20T09:35:12.124Z,26.43
2019-05-20T09:37:38.798Z,28.73
2019-05-20T09:40:07.171Z,27.50
2019-05-20T09:42:33.914Z,32.67
2019-05-20T09:45:03.036Z,31.70
2019-05-20T09:47:28.762Z,30.47
2019-05-20T09:49:55.215Z,33.93
2019-05-20T09:52:21.783Z,33.13
2019-05-20T09:54:48.136Z,32.40
2019-05-20T09:57:14.812Z,38.70
2019-05-20T09:59:43.717Z,40.20
2019-05-20T10:02:09.993Z,44.83
2019-05-20T10:04:36.435Z,43.93
2019-05-20T10:07:03.006Z,46.20
2019-05-20T10:09:29.452Z,43.17
2019-05-20T10:11:55.922Z,43.60
2019-05-20T10:14:22.380Z,48.30
2019-05-20T10:16:48.956Z,41.03
2019-05-20T10:19:15.605Z,41.60
2019-05-20T10:21:42.580Z,38.90
2019-05-20T10:24:09.136Z,35.13
2019-05-20T10:26:36.164Z,41.20
2019-05-20T10:29:03.031Z,35.33
2019-05-20T10:31:29.679Z,34.70
2019-05-20T10:33:56.391Z,39.10
2019-05-20T10:36:23.143Z,42.73
2019-05-20T10:38:58.646Z,45.70
2019-05-20T10:41:17.871Z,51.47
2019-05-20T10:43:44.573Z,44.03
2019-05-20T10:46:11.230Z,40.03
2019-05-20T10:48:37.787Z,43.97
2019-05-20T10:51:04.697Z,42.73
2019-05-20T10:53:31.549Z,44.93
2019-05-20T10:55:58.445Z,47.37
2019-05-20T10:58:25.510Z,43.83
2019-05-20T11:01:02.401Z,39.37
2019-05-20T11:03:20.359Z,41.90
2019-05-20T11:05:46.812Z,38.80
2019-05-20T11:08:13.259Z,38.27
2019-05-20T11:10:40.159Z,43.00
2019-05-20T11:13:06.720Z,44.23
2019-05-20T11:15:33.640Z,45.43
2019-05-20T11:18:00.026Z,41.73
2019-05-20T11:20:26.519Z,47.10
2019-05-20T11:22:52.942Z,52.80
2019-05-20T11:25:19.527Z,40.10
2019-05-20T11:27:45.979Z,43.90
2019-05-20T11:30:13.050Z,59.63
2019-05-20T11:32:39.819Z,45.47
2019-05-20T11:35:07.197Z,48.87
2019-05-20T11:37:33.874Z,44.00
2019-05-20T11:40:00.322Z,44.80
2019-05-20T11:42:26.900Z,47.17
2019-05-20T11:44:53.352Z,45.87
2019-05-20T11:47:20.157Z,46.47
2019-05-20T11:49:46.741Z,50.90
2019-05-20T11:52:13.628Z,46.43
2019-05-20T11:54:40.105Z,42.17
2019-05-20T11:57:06.681Z,46.13
2019-05-20T11:59:33.117Z,41.13
2019-05-20T12:02:03.675Z,48.83
2019-05-20T12:04:28.374Z,45.10
2019-05-20T12:06:55.307Z,38.50
2019-05-20T12:09:22.150Z,45.90
2019-05-20T12:11:48.982Z,38.43
2019-05-20T12:14:15.452Z,46.67
2019-05-20T12:16:41.824Z,37.30
2019-05-20T12:19:08.404Z,43.47
2019-05-20T12:21:35.851Z,45.43
2019-05-20T12:24:02.261Z,40.57
2019-05-20T12:26:28.816Z,51.57
2019-05-20T12:28:55.321Z,49.73
2019-05-20T12:31:21.773Z,38.30
2019-05-20T12:33:48.592Z,43.03
2019-05-20T12:36:15.092Z,41.73
2019-05-20T12:38:41.906Z,36.73
2019-05-20T12:41:08.739Z,43.83
2019-05-20T12:43:35.448Z,40.37
2019-05-20T12:46:02.310Z,43.80
2019-05-20T12:48:28.907Z,40.40
2019-05-20T12:50:55.448Z,40.90
2019-05-20T12:53:21.932Z,44.93
2019-05-20T12:55:48.608Z,38.30
2019-05-20T12:58:15.060Z,38.70
2019-05-20T13:00:41.537Z,45.70
2019-05-20T13:03:07.981Z,36.77
2019-05-20T13:05:34.452Z,39.03
2019-05-20T13:08:01.012Z,36.17
2019-05-20T13:10:31.240Z,41.90
2019-05-20T13:12:55.737Z,40.07
2019-05-20T13:15:22.422Z,38.53
2019-05-20T13:17:48.865Z,42.33
2019-05-20T13:20:15.761Z,41.77
2019-05-20T13:22:42.218Z,44.90
2019-05-20T13:25:09.259Z,43.00
2019-05-20T13:27:35.723Z,40.93
2019-05-20T13:30:05.495Z,44.60
2019-05-20T13:32:31.984Z,41.23
2019-05-20T13:34:58.352Z,39.77
2019-05-20T13:37:24.837Z,34.90
2019-05-20T13:39:51.300Z,37.37
2019-05-20T13:42:17.777Z,39.43
2019-05-20T13:44:44.529Z,39.37
2019-05-20T13:47:11.462Z,38.87
2019-05-20T13:49:38.422Z,40.73
2019-05-20T13:52:05.455Z,40.77
2019-05-20T13:54:32.300Z,43.47
2019-05-20T13:56:58.897Z,44.17
2019-05-20T13:59:25.481Z,45.73
2019-05-20T14:01:52.026Z,44.37
2019-05-20T14:04:18.596Z,40.40
2019-05-20T14:06:45.260Z,44.93
2019-05-20T14:09:11.744Z,48.50
2019-05-20T14:11:38.296Z,42.70
2019-05-20T14:14:05.296Z,46.73
2019-05-20T14:16:31.768Z,43.43
2019-05-20T14:18:58.128Z,43.90
2019-05-20T14:21:24.917Z,40.63
2019-05-20T14:23:51.539Z,41.40
2019-05-20T14:26:17.984Z,47.90
2019-05-20T14:28:44.549Z,42.47
2019-05-20T14:31:11.113Z,44.70
2019-05-20T14:33:37.593Z,45.97
2019-05-20T14:36:04.057Z,43.83
2019-05-20T14:38:30.722Z,46.63
2019-05-20T14:40:57.404Z,45.40
2019-05-20T14:43:23.867Z,52.83
2019-05-20T14:45:50.345Z,52.07
2019-05-20T14:48:16.887Z,45.90
2019-05-20T14:50:43.596Z,51.27
2019-05-20T14:53:10.142Z,50.40
2019-05-20T14:55:42.057Z,48.97
2019-05-20T14:58:04.924Z,48.30
2019-05-20T15:00:31.572Z,51.10
2019-05-20T15:02:58.163Z,48.20
2019-05-20T15:05:24.888Z,46.67
2019-05-20T15:07:51.432Z,51.70
2019-05-20T15:10:18.584Z,45.97
2019-05-20T15:12:45.060Z,45.20
2019-05-20T15:15:12.338Z,42.53
2019-05-20T15:17:39.447Z,46.60
2019-05-20T15:20:07.808Z,47.47
2019-05-20T15:22:34.597Z,47.30
2019-05-20T15:25:01.504Z,44.10
2019-05-20T15:27:28.168Z,45.90
2019-05-20T15:29:54.523Z,49.90
2019-05-20T15:32:21.037Z,43.90
2019-05-20T15:34:47.854Z,46.10
2019-05-20T15:37:14.976Z,48.83
2019-05-20T15:39:41.663Z,42.40
2019-05-20T15:42:08.121Z,37.33
2019-05-20T15:44:35.017Z,41.07
2019-05-20T15:47:01.862Z,42.97
2019-05-20T15:49:28.711Z,43.87
2019-05-20T15:51:55.159Z,46.23
2019-05-20T15:54:21.633Z,46.33
2019-05-20T15:56:48.098Z,44.50
2019-05-20T15:59:14.690Z,44.63
2019-05-20T16:01:41.494Z,40.77
2019-05-20T16:04:08.329Z,45.63
2019-05-20T16:06:34.902Z,42.87
2019-05-20T16:09:01.714Z,39.20
2019-05-20T16:11:28.338Z,40.67
2019-05-20T16:13:55.189Z,43.37
2019-05-20T16:16:21.748Z,42.10
2019-05-20T16:18:48.325Z,37.70
2019-05-20T16:21:15.017Z,36.10
2019-05-20T16:23:41.576Z,41.50
2019-05-20T16:26:08.307Z,41.00
2019-05-20T16:28:34.753Z,44.47
2019-05-20T16:31:01.223Z,40.10
2019-05-20T16:33:27.897Z,35.13
2019-05-20T16:35:54.888Z,37.83
2019-05-20T16:38:21.451Z,39.93
2019-05-20T16:40:47.962Z,42.67
2019-05-20T16:43:14.513Z,30.80
2019-05-20T16:45:41.089Z,29.00
2019-05-20T16:48:07.825Z,35.53
2019-05-20T16:50:34.513Z,30.30
2019-05-20T16:53:01.137Z,32.00
2019-05-20T16:55:28.145Z,28.70
2019-05-20T16:57:54.724Z,28.73
2019-05-20T17:00:31.278Z,29.00
2019-05-20T17:02:50.105Z,25.37
2019-05-20T17:05:17.770Z,27.87
2019-05-20T17:07:44.340Z,33.57
2019-05-20T17:10:11.471Z,31.43
2019-05-20T17:12:38.062Z,34.50
2019-05-20T17:15:05.113Z,26.17
2019-05-20T17:17:31.561Z,25.37
2019-05-20T17:19:58.149Z,23.93
2019-05-20T17:22:24.796Z,24.53
2019-05-20T17:24:51.590Z,26.10
2019-05-20T17:27:18.065Z,25.10
2019-05-20T17:29:44.540Z,24.40
2019-05-20T17:32:10.997Z,25.80
2019-05-20T17:34:37.834Z,27.00
2019-05-20T17:37:04.310Z,24.97
2019-05-20T17:39:31.045Z,30.23
2019-05-20T17:41:57.585Z,30.53
2019-05-20T17:44:24.153Z,29.13
2019-05-20T17:46:50.925Z,31.60
2019-05-20T17:49:17.284Z,31.93
2019-05-20T17:51:43.866Z,28.83
2019-05-20T17:54:10.419Z,26.87
2019-05-20T17:56:36.897Z,24.60
2019-05-20T17:59:03.647Z,25.10
2019-05-20T18:01:30.219Z,28.93
2019-05-20T18:03:56.785Z,29.00
2019-05-20T18:06:23.724Z,25.67
2019-05-20T18:08:52.119Z,30.43
2019-05-20T18:11:19.341Z,24.47
2019-05-20T18:13:46.048Z,29.70
2019-05-20T18:16:12.688Z,28.03
2019-05-20T18:18:39.173Z,33.13
2019-05-20T18:21:05.633Z,28.67
2019-05-20T18:23:32.370Z,32.23
2019-05-20T18:25:58.916Z,27.93
2019-05-20T18:28:25.324Z,29.27
2019-05-20T18:30:51.781Z,29.20
2019-05-20T18:33:18.590Z,28.70
2019-05-20T18:35:45.055Z,30.07
2019-05-20T18:38:11.531Z,25.50
2019-05-20T18:40:38.081Z,27.50
2019-05-20T18:43:04.837Z,27.50
2019-05-20T18:45:31.784Z,30.40
2019-05-20T18:47:58.266Z,26.37
2019-05-20T18:50:24.803Z,26.87
2019-05-20T18:52:51.395Z,26.67
2019-05-20T18:55:17.841Z,23.40
2019-05-20T18:57:44.508Z,28.97
2019-05-20T19:00:11.795Z,28.13
2019-05-20T19:02:38.362Z,27.73
2019-05-20T19:05:06.431Z,26.80
2019-05-20T19:07:32.884Z,25.33
2019-05-20T19:09:59.467Z,26.23
2019-05-20T19:12:26.129Z,26.57
2019-05-20T19:14:52.610Z,26.30
2019-05-20T19:17:19.068Z,27.80
2019-05-20T19:19:45.553Z,28.87
2019-05-20T19:22:12.482Z,37.60
2019-05-20T19:24:39.028Z,28.17
2019-05-20T19:27:05.600Z,28.00
2019-05-20T19:29:32.197Z,29.67
2019-05-20T19:32:01.771Z,27.80
2019-05-20T19:34:27.033Z,33.80
2019-05-20T19:36:53.508Z,33.27
2019-05-20T19:39:20.052Z,33.60
2019-05-20T19:41:46.528Z,30.60
2019-05-20T19:44:13.553Z,33.40
2019-05-20T19:46:40.709Z,33.67
2019-05-20T19:49:07.161Z,32.03
2019-05-20T19:51:33.769Z,28.97
2019-05-20T19:54:00.222Z,28.27
2019-05-20T19:56:27.065Z,30.83
2019-05-20T19:58:53.884Z,25.70
2019-05-20T20:01:20.413Z,28.87
2019-05-20T20:03:46.921Z,28.47
2019-05-20T20:06:13.365Z,29.30
2019-05-20T20:08:39.932Z,29.10
2019-05-20T20:11:06.302Z,31.87
2019-05-20T20:13:34.524Z,33.27
2019-05-20T20:16:01.042Z,29.90
2019-05-20T20:18:27.498Z,30.93
2019-05-20T20:20:53.956Z,33.43
2019-05-20T20:23:20.898Z,34.20
2019-05-20T20:25:47.451Z,33.57
2019-05-20T20:28:13.934Z,31.10
2019-05-20T20:30:40.408Z,34.33
2019-05-20T20:33:06.957Z,33.67
2019-05-20T20:35:38.096Z,39.90
2019-05-20T20:38:01.689Z,42.10
2019-05-20T20:40:28.601Z,42.07
2019-05-20T20:42:54.976Z,41.40
2019-05-20T20:45:21.553Z,50.43
2019-05-20T20:47:48.303Z,45.87
2019-05-20T20:50:14.962Z,47.43
2019-05-20T20:52:41.539Z,41.20
2019-05-20T20:55:08.701Z,46.33
2019-05-20T20:57:35.269Z,47.77
2019-05-20T21:00:04.584Z,45.40
2019-05-20T21:02:31.021Z,47.93
2019-05-20T21:04:57.609Z,47.13
2019-05-20T21:07:24.076Z,46.37
2019-05-20T21:09:50.871Z,47.07
2019-05-20T21:12:17.508Z,49.03
2019-05-20T21:14:43.956Z,41.97
2019-05-20T21:17:10.384Z,35.70
2019-05-20T21:19:36.859Z,35.07
2019-05-20T21:22:03.428Z,41.40
2019-05-20T21:24:29.891Z,37.60
2019-05-20T21:26:56.358Z,39.37
2019-05-20T21:29:22.864Z,39.87
2019-05-20T21:31:49.409Z,39.67
2019-05-20T21:34:16.173Z,30.97
2019-05-20T21:36:47.796Z,38.80
2019-05-20T21:39:11.330Z,39.47
2019-05-20T21:41:57.642Z,45.27
2019-05-20T21:44:24.131Z,39.47
2019-05-20T21:46:50.576Z,32.40
2019-05-20T21:49:17.063Z,45.27
2019-05-20T21:51:43.519Z,41.33
2019-05-20T21:54:09.981Z,43.30
2019-05-20T21:56:36.487Z,48.40
2019-05-20T21:59:03.203Z,43.53
2019-05-20T22:01:29.683Z,37.40
2019-05-20T22:03:56.123Z,41.07
2019-05-20T22:06:22.848Z,41.60
2019-05-20T22:08:49.298Z,41.80
2019-05-20T22:11:15.867Z,42.70
2019-05-20T22:13:42.245Z,42.60
2019-05-20T22:16:09.096Z,47.40
2019-05-20T22:18:35.552Z,42.83
2019-05-20T22:21:02.059Z,43.43
2019-05-20T22:23:30.396Z,45.30
2019-05-20T22:25:56.880Z,46.93
2019-05-20T22:28:23.383Z,45.47
2019-05-20T22:30:49.975Z,43.03
2019-05-20T22:33:16.428Z,47.13
2019-05-20T22:35:42.816Z,51.07
2019-05-20T22:38:09.260Z,38.37
2019-05-20T22:40:35.845Z,44.87
2019-05-20T22:43:02.410Z,45.53
2019-05-20T22:45:28.966Z,49.03
2019-05-20T22:47:55.805Z,47.67
2019-05-20T22:50:22.364Z,56.20
2019-05-20T22:52:48.834Z,47.90
2019-05-20T22:55:15.386Z,49.47
2019-05-20T22:57:42.153Z,47.80
2019-05-20T23:00:08.908Z,52.90
2019-05-20T23:02:35.407Z,54.90
2019-05-20T23:05:02.673Z,60.30
2019-05-20T23:07:29.141Z,69.60
2019-05-20T23:09:55.621Z,49.50
2019-05-20T23:12:22.311Z,52.27
2019-05-20T23:14:48.892Z,55.53
2019-05-20T23:17:15.543Z,53.57
2019-05-20T23:19:42.012Z,47.00
2019-05-20T23:22:08.485Z,49.77
2019-05-20T23:24:34.956Z,53.80
2019-05-20T23:27:01.410Z,54.37
2019-05-20T23:29:27.900Z,47.80
2019-05-20T23:31:54.357Z,49.63
2019-05-20T23:34:20.823Z,49.50
2019-05-20T23:36:47.280Z,49.90
2019-05-20T23:39:13.729Z,43.60
2019-05-20T23:41:40.320Z,51.07
2019-05-20T23:44:06.885Z,41.97
2019-05-20T23:46:33.357Z,40.23
2019-05-20T23:48:59.921Z,41.07
2019-05-20T23:51:26.493Z,31.17
2019-05-20T23:53:52.949Z,36.70
2019-05-20T23:56:19.425Z,30.20
2019-05-20T23:58:46.186Z,35.17
